sensor_id;sensor_type;location;lat;lon;timestamp;pressure;altitude;pressure_sealevel;temperature;humidity
66742;BME280;53654;54.152;19.432;2022-08-25T00:00:20;102075.56;;;19.93;100.00
66742;BME280;53654;54.152;19.432;2022-08-25T00:03:03;102072.95;;;19.91;100.00
66742;BME280;53654;54.152;19.432;2022-08-25T00:05:31;102073.63;;;19.92;100.00
66742;BME280;53654;54.152;19.432;2022-08-25T00:08:01;102070.44;;;19.93;100.00
66742;BME280;53654;54.152;19.432;2022-08-25T00:10:35;102071.80;;;19.95;100.00
66742;BME280;53654;54.152;19.432;2022-08-25T00:13:04;102077.40;;;19.98;100.00
66742;BME280;53654;54.152;19.432;2022-08-25T00:15:32;102076.11;;;19.99;100.00
66742;BME280;53654;54.152;19.432;2022-08-25T00:18:01;102072.55;;;20.00;100.00
66742;BME280;53654;54.152;19.432;2022-08-25T00:20:30;102074.48;;;20.01;100.00
66742;BME280;53654;54.152;19.432;2022-08-25T00:23:00;102072.69;;;20.01;100.00
66742;BME280;53654;54.152;19.432;2022-08-25T00:25:28;102068.39;;;20.03;100.00
66742;BME280;53654;54.152;19.432;2022-08-25T00:27:56;102072.62;;;20.04;100.00
66742;BME280;53654;54.152;19.432;2022-08-25T00:30:26;102072.59;;;20.05;100.00
66742;BME280;53654;54.152;19.432;2022-08-25T00:32:54;102074.50;;;20.07;100.00
66742;BME280;53654;54.152;19.432;2022-08-25T00:35:25;102073.96;;;20.07;100.00
66742;BME280;53654;54.152;19.432;2022-08-25T00:37:53;102076.05;;;20.08;100.00
66742;BME280;53654;54.152;19.432;2022-08-25T00:40:24;102073.58;;;20.08;100.00
66742;BME280;53654;54.152;19.432;2022-08-25T00:42:53;102072.52;;;20.07;100.00
66742;BME280;53654;54.152;19.432;2022-08-25T00:45:23;102071.63;;;20.08;100.00
66742;BME280;53654;54.152;19.432;2022-08-25T00:47:51;102071.83;;;20.07;100.00
66742;BME280;53654;54.152;19.432;2022-08-25T00:50:20;102069.66;;;20.08;100.00
66742;BME280;53654;54.152;19.432;2022-08-25T00:52:55;102068.95;;;20.08;100.00
66742;BME280;53654;54.152;19.432;2022-08-25T00:55:43;102067.70;;;20.09;100.00
66742;BME280;53654;54.152;19.432;2022-08-25T00:58:15;102071.95;;;20.09;100.00
66742;BME280;53654;54.152;19.432;2022-08-25T01:00:48;102075.69;;;20.09;100.00
66742;BME280;53654;54.152;19.432;2022-08-25T01:03:18;102079.73;;;20.09;100.00
66742;BME280;53654;54.152;19.432;2022-08-25T01:05:51;102084.36;;;20.09;100.00
66742;BME280;53654;54.152;19.432;2022-08-25T01:08:23;102083.29;;;20.09;100.00
66742;BME280;53654;54.152;19.432;2022-08-25T01:10:57;102088.76;;;20.10;100.00
66742;BME280;53654;54.152;19.432;2022-08-25T01:13:40;102092.64;;;20.10;100.00
66742;BME280;53654;54.152;19.432;2022-08-25T01:16:11;102113.05;;;20.09;100.00
66742;BME280;53654;54.152;19.432;2022-08-25T01:21:14;102132.65;;;19.91;100.00
66742;BME280;53654;54.152;19.432;2022-08-25T01:23:44;102132.82;;;19.84;100.00
66742;BME280;53654;54.152;19.432;2022-08-25T01:26:24;102129.40;;;19.79;100.00
66742;BME280;53654;54.152;19.432;2022-08-25T01:29:00;102130.27;;;19.80;100.00
66742;BME280;53654;54.152;19.432;2022-08-25T01:31:49;102138.94;;;19.80;100.00
66742;BME280;53654;54.152;19.432;2022-08-25T01:34:18;102140.66;;;19.82;100.00
66742;BME280;53654;54.152;19.432;2022-08-25T01:36:48;102135.30;;;19.84;100.00
66742;BME280;53654;54.152;19.432;2022-08-25T01:39:16;102134.33;;;19.87;100.00
66742;BME280;53654;54.152;19.432;2022-08-25T01:44:35;102133.45;;;19.94;100.00
66742;BME280;53654;54.152;19.432;2022-08-25T01:47:05;102128.06;;;19.97;100.00
66742;BME280;53654;54.152;19.432;2022-08-25T01:49:34;102128.70;;;20.00;100.00
66742;BME280;53654;54.152;19.432;2022-08-25T01:54:39;102120.75;;;20.06;100.00
66742;BME280;53654;54.152;19.432;2022-08-25T01:57:07;102106.48;;;20.09;100.00
66742;BME280;53654;54.152;19.432;2022-08-25T01:59:36;102096.48;;;20.12;100.00
66742;BME280;53654;54.152;19.432;2022-08-25T02:02:04;102088.13;;;20.13;100.00
66742;BME280;53654;54.152;19.432;2022-08-25T02:04:33;102074.66;;;20.14;100.00
66742;BME280;53654;54.152;19.432;2022-08-25T02:07:04;102065.63;;;20.13;100.00
66742;BME280;53654;54.152;19.432;2022-08-25T02:09:34;102064.02;;;20.14;100.00
66742;BME280;53654;54.152;19.432;2022-08-25T02:12:03;102053.92;;;20.14;100.00
66742;BME280;53654;54.152;19.432;2022-08-25T02:14:31;102044.20;;;20.13;100.00
66742;BME280;53654;54.152;19.432;2022-08-25T02:16:59;102028.95;;;20.13;100.00
66742;BME280;53654;54.152;19.432;2022-08-25T02:19:28;102022.84;;;20.11;100.00
66742;BME280;53654;54.152;19.432;2022-08-25T02:21:59;102022.23;;;20.07;100.00
66742;BME280;53654;54.152;19.432;2022-08-25T02:24:27;102032.49;;;20.07;100.00
66742;BME280;53654;54.152;19.432;2022-08-25T02:26:56;102043.86;;;20.07;100.00
66742;BME280;53654;54.152;19.432;2022-08-25T02:29:24;102048.11;;;20.06;100.00
66742;BME280;53654;54.152;19.432;2022-08-25T02:31:53;102047.41;;;20.06;100.00
66742;BME280;53654;54.152;19.432;2022-08-25T02:34:21;102046.70;;;20.06;100.00
66742;BME280;53654;54.152;19.432;2022-08-25T02:36:50;102050.80;;;20.05;100.00
66742;BME280;53654;54.152;19.432;2022-08-25T02:39:18;102045.69;;;20.04;100.00
66742;BME280;53654;54.152;19.432;2022-08-25T02:41:46;102044.98;;;20.04;100.00
66742;BME280;53654;54.152;19.432;2022-08-25T02:44:14;102042.33;;;20.04;100.00
66742;BME280;53654;54.152;19.432;2022-08-25T02:46:42;102038.96;;;20.04;100.00
66742;BME280;53654;54.152;19.432;2022-08-25T02:49:10;102034.70;;;20.05;100.00
66742;BME280;53654;54.152;19.432;2022-08-25T02:51:38;102032.25;;;20.04;100.00
66742;BME280;53654;54.152;19.432;2022-08-25T02:54:06;102029.91;;;20.04;100.00
66742;BME280;53654;54.152;19.432;2022-08-25T02:56:34;102030.64;;;20.04;100.00
66742;BME280;53654;54.152;19.432;2022-08-25T02:59:03;102035.24;;;20.04;100.00
66742;BME280;53654;54.152;19.432;2022-08-25T03:01:32;102035.79;;;20.04;100.00
66742;BME280;53654;54.152;19.432;2022-08-25T03:04:00;102036.30;;;20.04;100.00
66742;BME280;53654;54.152;19.432;2022-08-25T03:06:29;102037.52;;;20.05;100.00
66742;BME280;53654;54.152;19.432;2022-08-25T03:08:57;102033.41;;;20.06;100.00
66742;BME280;53654;54.152;19.432;2022-08-25T03:11:26;102036.03;;;20.08;100.00
66742;BME280;53654;54.152;19.432;2022-08-25T03:13:54;102032.14;;;20.07;100.00
66742;BME280;53654;54.152;19.432;2022-08-25T03:16:23;102028.42;;;20.07;100.00
66742;BME280;53654;54.152;19.432;2022-08-25T03:18:55;102027.02;;;20.07;100.00
66742;BME280;53654;54.152;19.432;2022-08-25T03:21:24;102028.61;;;20.07;100.00
66742;BME280;53654;54.152;19.432;2022-08-25T03:23:53;102025.08;;;20.07;100.00
66742;BME280;53654;54.152;19.432;2022-08-25T03:26:21;102022.23;;;20.07;100.00
66742;BME280;53654;54.152;19.432;2022-08-25T03:29:09;102022.75;;;20.07;100.00
66742;BME280;53654;54.152;19.432;2022-08-25T03:31:38;102019.74;;;20.07;100.00
66742;BME280;53654;54.152;19.432;2022-08-25T03:34:06;102017.44;;;20.08;100.00
66742;BME280;53654;54.152;19.432;2022-08-25T03:36:34;102011.95;;;20.07;100.00
66742;BME280;53654;54.152;19.432;2022-08-25T03:39:03;102013.20;;;20.07;100.00
66742;BME280;53654;54.152;19.432;2022-08-25T03:41:32;102013.35;;;20.08;100.00
66742;BME280;53654;54.152;19.432;2022-08-25T03:44:02;102009.63;;;20.08;100.00
66742;BME280;53654;54.152;19.432;2022-08-25T03:46:57;102012.61;;;20.09;100.00
66742;BME280;53654;54.152;19.432;2022-08-25T03:49:25;102011.90;;;20.09;100.00
66742;BME280;53654;54.152;19.432;2022-08-25T03:51:57;102005.52;;;20.09;100.00
66742;BME280;53654;54.152;19.432;2022-08-25T03:54:26;102000.92;;;20.09;100.00
66742;BME280;53654;54.152;19.432;2022-08-25T03:56:54;102005.70;;;20.09;100.00
66742;BME280;53654;54.152;19.432;2022-08-25T03:59:22;102002.00;;;20.08;100.00
66742;BME280;53654;54.152;19.432;2022-08-25T04:01:51;102010.65;;;20.09;100.00
66742;BME280;53654;54.152;19.432;2022-08-25T04:04:22;102007.97;;;20.10;100.00
66742;BME280;53654;54.152;19.432;2022-08-25T04:06:50;102009.52;;;20.12;100.00
66742;BME280;53654;54.152;19.432;2022-08-25T04:09:19;102012.66;;;20.13;100.00
66742;BME280;53654;54.152;19.432;2022-08-25T04:11:47;102013.34;;;20.15;100.00
66742;BME280;53654;54.152;19.432;2022-08-25T04:14:22;102018.98;;;20.15;100.00
66742;BME280;53654;54.152;19.432;2022-08-25T04:16:51;102018.40;;;20.17;100.00
66742;BME280;53654;54.152;19.432;2022-08-25T04:19:20;102018.36;;;20.19;100.00
66742;BME280;53654;54.152;19.432;2022-08-25T04:21:49;102017.60;;;20.20;100.00
66742;BME280;53654;54.152;19.432;2022-08-25T04:24:23;102014.55;;;20.22;100.00
66742;BME280;53654;54.152;19.432;2022-08-25T04:26:51;102017.48;;;20.24;100.00
66742;BME280;53654;54.152;19.432;2022-08-25T04:29:21;102018.83;;;20.27;100.00
66742;BME280;53654;54.152;19.432;2022-08-25T04:31:52;102015.20;;;20.30;100.00
66742;BME280;53654;54.152;19.432;2022-08-25T04:34:22;102020.77;;;20.34;100.00
66742;BME280;53654;54.152;19.432;2022-08-25T04:37:00;102018.20;;;20.37;100.00
66742;BME280;53654;54.152;19.432;2022-08-25T04:39:28;102017.44;;;20.40;100.00
66742;BME280;53654;54.152;19.432;2022-08-25T04:41:57;102017.48;;;20.44;100.00
66742;BME280;53654;54.152;19.432;2022-08-25T04:44:28;102019.64;;;20.49;100.00
66742;BME280;53654;54.152;19.432;2022-08-25T04:46:57;102015.27;;;20.53;100.00
66742;BME280;53654;54.152;19.432;2022-08-25T04:49:26;102014.75;;;20.58;100.00
66742;BME280;53654;54.152;19.432;2022-08-25T04:51:55;102009.93;;;20.65;100.00
66742;BME280;53654;54.152;19.432;2022-08-25T04:54:24;102003.65;;;20.79;100.00
66742;BME280;53654;54.152;19.432;2022-08-25T04:56:53;102000.53;;;20.89;100.00
66742;BME280;53654;54.152;19.432;2022-08-25T04:59:26;101998.37;;;20.96;100.00
66742;BME280;53654;54.152;19.432;2022-08-25T05:01:59;101999.14;;;21.10;100.00
66742;BME280;53654;54.152;19.432;2022-08-25T05:04:31;101998.77;;;21.33;100.00
66742;BME280;53654;54.152;19.432;2022-08-25T05:07:00;102000.09;;;21.57;100.00
66742;BME280;53654;54.152;19.432;2022-08-25T05:09:29;102003.99;;;21.87;100.00
66742;BME280;53654;54.152;19.432;2022-08-25T05:12:03;102004.09;;;22.10;100.00
66742;BME280;53654;54.152;19.432;2022-08-25T05:14:32;102003.41;;;22.18;99.64
66742;BME280;53654;54.152;19.432;2022-08-25T05:17:01;102003.23;;;22.18;98.43
66742;BME280;53654;54.152;19.432;2022-08-25T05:19:30;102005.36;;;22.14;97.82
66742;BME280;53654;54.152;19.432;2022-08-25T05:21:58;102001.46;;;22.09;97.27
66742;BME280;53654;54.152;19.432;2022-08-25T05:24:26;102007.91;;;22.02;96.96
66742;BME280;53654;54.152;19.432;2022-08-25T05:26:55;102003.00;;;21.95;96.69
66742;BME280;53654;54.152;19.432;2022-08-25T05:29:24;102006.33;;;21.86;96.64
66742;BME280;53654;54.152;19.432;2022-08-25T05:31:53;102008.70;;;21.80;96.63
66742;BME280;53654;54.152;19.432;2022-08-25T05:34:22;102009.66;;;21.73;96.73
66742;BME280;53654;54.152;19.432;2022-08-25T05:36:51;102006.31;;;21.67;97.18
66742;BME280;53654;54.152;19.432;2022-08-25T05:39:19;102004.16;;;21.62;97.42
66742;BME280;53654;54.152;19.432;2022-08-25T05:41:47;102005.74;;;21.58;97.76
66742;BME280;53654;54.152;19.432;2022-08-25T05:44:15;102007.71;;;21.52;98.41
66742;BME280;53654;54.152;19.432;2022-08-25T05:46:48;102006.46;;;21.47;98.76
66742;BME280;53654;54.152;19.432;2022-08-25T05:49:17;102002.71;;;21.42;98.93
66742;BME280;53654;54.152;19.432;2022-08-25T05:51:45;102001.42;;;21.38;99.44
66742;BME280;53654;54.152;19.432;2022-08-25T05:54:13;102000.95;;;21.37;99.82
66742;BME280;53654;54.152;19.432;2022-08-25T05:56:41;102002.29;;;21.34;100.00
66742;BME280;53654;54.152;19.432;2022-08-25T05:59:10;102005.16;;;21.33;100.00
66742;BME280;53654;54.152;19.432;2022-08-25T06:01:38;102003.96;;;21.32;100.00
66742;BME280;53654;54.152;19.432;2022-08-25T06:04:24;102010.73;;;21.31;100.00
66742;BME280;53654;54.152;19.432;2022-08-25T06:06:52;102013.44;;;21.30;100.00
66742;BME280;53654;54.152;19.432;2022-08-25T06:09:22;102009.08;;;21.28;100.00
66742;BME280;53654;54.152;19.432;2022-08-25T06:11:51;102008.23;;;21.27;100.00
66742;BME280;53654;54.152;19.432;2022-08-25T06:14:23;102007.03;;;21.25;100.00
66742;BME280;53654;54.152;19.432;2022-08-25T06:16:51;102008.63;;;21.25;100.00
66742;BME280;53654;54.152;19.432;2022-08-25T06:19:20;102013.02;;;21.26;100.00
66742;BME280;53654;54.152;19.432;2022-08-25T06:21:59;102017.44;;;21.27;100.00
66742;BME280;53654;54.152;19.432;2022-08-25T06:24:28;102015.48;;;21.27;100.00
66742;BME280;53654;54.152;19.432;2022-08-25T06:26:56;102025.54;;;21.29;100.00
66742;BME280;53654;54.152;19.432;2022-08-25T06:29:25;102025.64;;;21.31;100.00
66742;BME280;53654;54.152;19.432;2022-08-25T06:31:53;102029.08;;;21.34;100.00
66742;BME280;53654;54.152;19.432;2022-08-25T06:34:21;102031.97;;;21.38;100.00
66742;BME280;53654;54.152;19.432;2022-08-25T06:36:51;102040.75;;;21.41;100.00
66742;BME280;53654;54.152;19.432;2022-08-25T06:39:19;102045.24;;;21.44;100.00
66742;BME280;53654;54.152;19.432;2022-08-25T06:41:52;102051.54;;;21.48;100.00
66742;BME280;53654;54.152;19.432;2022-08-25T06:44:25;102055.55;;;21.50;100.00
66742;BME280;53654;54.152;19.432;2022-08-25T06:46:54;102063.45;;;21.52;100.00
66742;BME280;53654;54.152;19.432;2022-08-25T06:49:22;102071.14;;;21.56;100.00
66742;BME280;53654;54.152;19.432;2022-08-25T06:51:57;102076.61;;;21.57;100.00
66742;BME280;53654;54.152;19.432;2022-08-25T06:54:26;102082.65;;;21.57;100.00
66742;BME280;53654;54.152;19.432;2022-08-25T06:56:54;102091.79;;;21.60;100.00
66742;BME280;53654;54.152;19.432;2022-08-25T06:59:24;102098.44;;;21.63;100.00
66742;BME280;53654;54.152;19.432;2022-08-25T07:02:00;102102.20;;;21.67;100.00
66742;BME280;53654;54.152;19.432;2022-08-25T07:04:32;102101.35;;;21.76;100.00
66742;BME280;53654;54.152;19.432;2022-08-25T07:07:00;102106.80;;;21.88;100.00
66742;BME280;53654;54.152;19.432;2022-08-25T07:09:28;102108.92;;;21.99;100.00
66742;BME280;53654;54.152;19.432;2022-08-25T07:11:57;102111.89;;;22.06;100.00
66742;BME280;53654;54.152;19.432;2022-08-25T07:14:25;102113.09;;;22.18;100.00
66742;BME280;53654;54.152;19.432;2022-08-25T07:16:54;102114.90;;;22.27;99.93
66742;BME280;53654;54.152;19.432;2022-08-25T07:19:22;102116.71;;;22.31;99.76
66742;BME280;53654;54.152;19.432;2022-08-25T07:21:51;102117.87;;;22.28;99.66
66742;BME280;53654;54.152;19.432;2022-08-25T07:24:20;102118.70;;;22.25;99.47
66742;BME280;53654;54.152;19.432;2022-08-25T07:26:49;102120.89;;;22.24;99.36
66742;BME280;53654;54.152;19.432;2022-08-25T07:29:21;102125.11;;;22.20;99.31
66742;BME280;53654;54.152;19.432;2022-08-25T07:32:01;102125.41;;;22.11;99.39
66742;BME280;53654;54.152;19.432;2022-08-25T07:34:30;102126.73;;;22.03;99.47
66742;BME280;53654;54.152;19.432;2022-08-25T07:37:21;102127.89;;;21.95;99.71
66742;BME280;53654;54.152;19.432;2022-08-25T07:40:17;102130.38;;;21.84;99.70
66742;BME280;53654;54.152;19.432;2022-08-25T07:42:47;102134.11;;;21.74;99.74
66742;BME280;53654;54.152;19.432;2022-08-25T07:45:16;102134.91;;;21.66;99.70
66742;BME280;53654;54.152;19.432;2022-08-25T07:47:48;102135.02;;;21.63;99.78
66742;BME280;53654;54.152;19.432;2022-08-25T07:50:19;102134.67;;;21.57;99.70
66742;BME280;53654;54.152;19.432;2022-08-25T07:52:48;102134.25;;;21.53;99.83
66742;BME280;53654;54.152;19.432;2022-08-25T07:55:26;102136.59;;;21.52;99.95
66742;BME280;53654;54.152;19.432;2022-08-25T07:57:55;102128.48;;;21.51;99.91
66742;BME280;53654;54.152;19.432;2022-08-25T08:00:25;102120.27;;;21.46;99.98
66742;BME280;53654;54.152;19.432;2022-08-25T08:02:57;102118.31;;;21.41;100.00
66742;BME280;53654;54.152;19.432;2022-08-25T08:05:26;102104.92;;;21.38;100.00
66742;BME280;53654;54.152;19.432;2022-08-25T08:07:55;102099.86;;;21.41;100.00
66742;BME280;53654;54.152;19.432;2022-08-25T08:10:24;102095.41;;;21.41;100.00
66742;BME280;53654;54.152;19.432;2022-08-25T08:13:12;102085.11;;;21.41;100.00
66742;BME280;53654;54.152;19.432;2022-08-25T08:15:45;102077.04;;;21.44;100.00
66742;BME280;53654;54.152;19.432;2022-08-25T08:18:14;102073.48;;;21.44;100.00
66742;BME280;53654;54.152;19.432;2022-08-25T08:20:45;102075.51;;;21.42;100.00
66742;BME280;53654;54.152;19.432;2022-08-25T08:23:14;102072.59;;;21.44;100.00
66742;BME280;53654;54.152;19.432;2022-08-25T08:25:43;102073.45;;;21.45;100.00
66742;BME280;53654;54.152;19.432;2022-08-25T08:28:11;102072.00;;;21.46;100.00
66742;BME280;53654;54.152;19.432;2022-08-25T08:30:39;102069.92;;;21.45;100.00
66742;BME280;53654;54.152;19.432;2022-08-25T08:33:21;102059.20;;;21.47;100.00
66742;BME280;53654;54.152;19.432;2022-08-25T08:35:59;102057.52;;;21.49;100.00
66742;BME280;53654;54.152;19.432;2022-08-25T08:38:35;102048.27;;;21.55;100.00
66742;BME280;53654;54.152;19.432;2022-08-25T08:44:07;102045.58;;;21.97;99.70
66742;BME280;53654;54.152;19.432;2022-08-25T08:46:52;102042.55;;;22.27;98.52
66742;BME280;53654;54.152;19.432;2022-08-25T08:49:37;102037.60;;;22.41;97.36
66742;BME280;53654;54.152;19.432;2022-08-25T08:52:12;102035.45;;;22.55;96.60
66742;BME280;53654;54.152;19.432;2022-08-25T08:54:45;102028.86;;;22.74;95.64
66742;BME280;53654;54.152;19.432;2022-08-25T08:57:20;102021.17;;;22.80;95.13
66742;BME280;53654;54.152;19.432;2022-08-25T08:59:54;102023.29;;;22.85;94.65
66742;BME280;53654;54.152;19.432;2022-08-25T09:02:34;102024.59;;;22.84;94.14
66742;BME280;53654;54.152;19.432;2022-08-25T09:05:20;102016.52;;;22.80;93.72
66742;BME280;53654;54.152;19.432;2022-08-25T09:07:54;102010.38;;;22.88;92.80
66742;BME280;53654;54.152;19.432;2022-08-25T09:10:25;102010.48;;;22.90;92.96
66742;BME280;53654;54.152;19.432;2022-08-25T09:19:13;102015.05;;;22.81;90.00
66742;BME280;53654;54.152;19.432;2022-08-25T09:30:43;101991.54;;;22.77;85.13
66742;BME280;53654;54.152;19.432;2022-08-25T09:33:18;101992.48;;;22.81;84.77
66742;BME280;53654;54.152;19.432;2022-08-25T09:35:50;101991.17;;;22.88;84.07
66742;BME280;53654;54.152;19.432;2022-08-25T09:38:21;101988.02;;;22.99;84.38
66742;BME280;53654;54.152;19.432;2022-08-25T09:40:54;101985.50;;;23.17;84.00
66742;BME280;53654;54.152;19.432;2022-08-25T09:48:32;101984.34;;;23.58;81.18
66742;BME280;53654;54.152;19.432;2022-08-25T09:51:19;101989.23;;;23.68;80.35
66742;BME280;53654;54.152;19.432;2022-08-25T09:53:51;101988.18;;;23.80;80.07
66742;BME280;53654;54.152;19.432;2022-08-25T09:56:23;101990.54;;;23.95;79.32
66742;BME280;53654;54.152;19.432;2022-08-25T09:58:54;101989.57;;;24.08;78.72
66742;BME280;53654;54.152;19.432;2022-08-25T10:01:29;101985.66;;;24.16;78.07
66742;BME280;53654;54.152;19.432;2022-08-25T10:04:04;101986.33;;;24.21;76.61
66742;BME280;53654;54.152;19.432;2022-08-25T10:06:36;101987.93;;;24.25;76.33
66742;BME280;53654;54.152;19.432;2022-08-25T10:09:20;101986.20;;;24.32;75.61
66742;BME280;53654;54.152;19.432;2022-08-25T10:11:49;101982.44;;;24.36;74.58
66742;BME280;53654;54.152;19.432;2022-08-25T10:17:11;101972.53;;;24.38;73.41
66742;BME280;53654;54.152;19.432;2022-08-25T10:19:40;101975.33;;;24.39;74.02
66742;BME280;53654;54.152;19.432;2022-08-25T10:22:26;101969.43;;;24.36;73.48
66742;BME280;53654;54.152;19.432;2022-08-25T10:25:00;101962.75;;;24.34;73.63
66742;BME280;53654;54.152;19.432;2022-08-25T10:28:00;101956.02;;;24.37;73.96
66742;BME280;53654;54.152;19.432;2022-08-25T10:36:30;101960.40;;;24.46;73.31
66742;BME280;53654;54.152;19.432;2022-08-25T10:39:04;101955.64;;;24.52;73.00
66742;BME280;53654;54.152;19.432;2022-08-25T10:44:51;101956.13;;;24.57;72.76
66742;BME280;53654;54.152;19.432;2022-08-25T10:50:40;101946.23;;;24.66;73.16
66742;BME280;53654;54.152;19.432;2022-08-25T10:53:26;101947.70;;;24.65;73.40
66742;BME280;53654;54.152;19.432;2022-08-25T10:56:02;101944.66;;;24.65;73.43
66742;BME280;53654;54.152;19.432;2022-08-25T11:07:43;101949.73;;;24.75;73.25
66742;BME280;53654;54.152;19.432;2022-08-25T11:10:21;101954.52;;;24.83;72.82
66742;BME280;53654;54.152;19.432;2022-08-25T11:12:55;101956.11;;;24.94;72.80
66742;BME280;53654;54.152;19.432;2022-08-25T11:15:30;101953.94;;;25.05;72.52
66742;BME280;53654;54.152;19.432;2022-08-25T11:18:08;101951.20;;;25.17;72.16
66742;BME280;53654;54.152;19.432;2022-08-25T11:20:55;101954.23;;;25.31;71.76
66742;BME280;53654;54.152;19.432;2022-08-25T11:23:32;101953.02;;;25.45;71.32
66742;BME280;53654;54.152;19.432;2022-08-25T11:26:09;101946.27;;;25.54;70.37
66742;BME280;53654;54.152;19.432;2022-08-25T11:31:58;101945.23;;;25.74;71.33
66742;BME280;53654;54.152;19.432;2022-08-25T11:34:32;101942.48;;;25.85;71.73
66742;BME280;53654;54.152;19.432;2022-08-25T11:37:10;101934.66;;;25.94;71.52
66742;BME280;53654;54.152;19.432;2022-08-25T11:40:13;101933.70;;;26.03;71.80
66742;BME280;53654;54.152;19.432;2022-08-25T11:42:54;101932.27;;;26.13;72.36
66742;BME280;53654;54.152;19.432;2022-08-25T11:45:47;101928.37;;;26.22;72.39
66742;BME280;53654;54.152;19.432;2022-08-25T11:51:09;101927.26;;;26.32;72.37
66742;BME280;53654;54.152;19.432;2022-08-25T11:53:41;101926.91;;;26.39;72.87
66742;BME280;53654;54.152;19.432;2022-08-25T11:56:35;101924.35;;;26.43;73.06
66742;BME280;53654;54.152;19.432;2022-08-25T11:59:07;101922.83;;;26.48;73.49
66742;BME280;53654;54.152;19.432;2022-08-25T12:07:17;101927.83;;;26.38;72.75
66742;BME280;53654;54.152;19.432;2022-08-25T12:12:36;101933.63;;;26.30;72.24
66742;BME280;53654;54.152;19.432;2022-08-25T12:15:25;101930.17;;;26.31;72.46
66742;BME280;53654;54.152;19.432;2022-08-25T12:23:45;101918.26;;;26.40;72.02
66742;BME280;53654;54.152;19.432;2022-08-25T12:29:29;101918.65;;;26.39;71.69
66742;BME280;53654;54.152;19.432;2022-08-25T12:37:30;101911.80;;;26.37;72.91
66742;BME280;53654;54.152;19.432;2022-08-25T12:40:01;101908.72;;;26.38;72.99
66742;BME280;53654;54.152;19.432;2022-08-25T12:42:37;101902.67;;;26.37;73.30
66742;BME280;53654;54.152;19.432;2022-08-25T12:45:28;101898.64;;;26.39;73.67
66742;BME280;53654;54.152;19.432;2022-08-25T12:53:34;101899.52;;;26.49;73.52
66742;BME280;53654;54.152;19.432;2022-08-25T12:56:15;101895.40;;;26.52;73.37
66742;BME280;53654;54.152;19.432;2022-08-25T13:02:22;101895.52;;;26.59;72.60
66742;BME280;53654;54.152;19.432;2022-08-25T13:10:54;101887.48;;;26.62;71.17
66742;BME280;53654;54.152;19.432;2022-08-25T13:18:32;101880.77;;;26.70;70.05
66742;BME280;53654;54.152;19.432;2022-08-25T13:21:10;101883.59;;;26.73;71.17
66742;BME280;53654;54.152;19.432;2022-08-25T13:23:43;101882.70;;;26.76;72.60
66742;BME280;53654;54.152;19.432;2022-08-25T13:26:16;101882.14;;;26.80;73.34
66742;BME280;53654;54.152;19.432;2022-08-25T13:29:15;101885.88;;;26.83;73.48
66742;BME280;53654;54.152;19.432;2022-08-25T13:34:42;101875.95;;;26.82;73.65
66742;BME280;53654;54.152;19.432;2022-08-25T13:37:17;101870.61;;;26.81;73.98
66742;BME280;53654;54.152;19.432;2022-08-25T13:42:47;101860.36;;;26.79;74.42
66742;BME280;53654;54.152;19.432;2022-08-25T13:45:26;101858.29;;;26.77;74.05
66742;BME280;53654;54.152;19.432;2022-08-25T13:47:58;101852.73;;;26.75;74.65
66742;BME280;53654;54.152;19.432;2022-08-25T13:53:11;101856.55;;;26.77;72.92
66742;BME280;53654;54.152;19.432;2022-08-25T13:58:22;101850.23;;;26.78;67.13
66742;BME280;53654;54.152;19.432;2022-08-25T14:01:24;101847.14;;;26.78;67.10
66742;BME280;53654;54.152;19.432;2022-08-25T14:04:26;101838.55;;;26.79;66.09
66742;BME280;53654;54.152;19.432;2022-08-25T14:09:54;101836.21;;;26.79;69.30
66742;BME280;53654;54.152;19.432;2022-08-25T14:17:27;101830.96;;;26.71;71.59
66742;BME280;53654;54.152;19.432;2022-08-25T14:20:18;101830.09;;;26.64;72.58
66742;BME280;53654;54.152;19.432;2022-08-25T14:22:55;101831.20;;;26.57;73.05
66742;BME280;53654;54.152;19.432;2022-08-25T14:25:28;101829.61;;;26.50;73.57
66742;BME280;53654;54.152;19.432;2022-08-25T14:27:59;101832.94;;;26.43;73.97
66742;BME280;53654;54.152;19.432;2022-08-25T14:30:47;101827.98;;;26.36;74.68
66742;BME280;53654;54.152;19.432;2022-08-25T14:33:20;101830.11;;;26.29;74.92
66742;BME280;53654;54.152;19.432;2022-08-25T14:35:51;101828.82;;;26.24;75.26
66742;BME280;53654;54.152;19.432;2022-08-25T14:38:22;101830.63;;;26.17;75.46
66742;BME280;53654;54.152;19.432;2022-08-25T14:40:51;101832.13;;;26.10;75.71
66742;BME280;53654;54.152;19.432;2022-08-25T14:43:20;101831.67;;;26.05;75.80
66742;BME280;53654;54.152;19.432;2022-08-25T14:45:59;101828.69;;;26.01;76.00
66742;BME280;53654;54.152;19.432;2022-08-25T14:48:40;101830.55;;;25.96;75.95
66742;BME280;53654;54.152;19.432;2022-08-25T14:51:11;101830.79;;;25.92;76.18
66742;BME280;53654;54.152;19.432;2022-08-25T14:53:41;101828.48;;;25.88;76.33
66742;BME280;53654;54.152;19.432;2022-08-25T14:56:10;101828.93;;;25.83;76.21
66742;BME280;53654;54.152;19.432;2022-08-25T14:58:41;101825.59;;;25.76;76.20
66742;BME280;53654;54.152;19.432;2022-08-25T15:01:22;101825.48;;;25.68;76.32
66742;BME280;53654;54.152;19.432;2022-08-25T15:04:04;101826.55;;;25.61;76.90
66742;BME280;53654;54.152;19.432;2022-08-25T15:06:34;101826.01;;;25.55;76.84